Terminal Aerodrome Forecast
Issued by NWS

Home | Current Version | Previous Version | Text Only | Print | Product List | Glossary On
Versions: 1 2 3 4 5 6 7 8 9 10 11 12 13 14 15 16 17 18 19 20 21 22 23 24 25 26 27 28 29 30 31 32 33 34 35 36 37 38 39 40
033
FTUS41 KOKX 191736
TAFTEB
TAF
KTEB 191736Z 1918/2018 32007KT P6SM SCT025 SCT250
      TEMPO 1918/1922 BKN025
     FM200000 34003KT P6SM SCT025 SCT250
     FM200800 VRB02KT P6SM SCT025 SCT250
     FM201400 07003KT P6SM SCT020 BKN200
     FM201700 14004KT P6SM BKN020 BKN150=

USA.gov is the U.S. government's official web portal to all federal, state and local government web resources and services.